Time;durP1;ratioP1;P1;durP2;ratioP2;P2;SDS_P1;SDS_P2;PMS_P1;PMS_P2;Temp;Humidity;BMP_temperature;BMP_pressure;BME280_temperature;BME280_humidity;BME280_pressure;Samples;Min_cycle;Max_cycle;Signal;HPM_P1;HPM_P2
2021/05/19 00:00:10;;;;;;;;;;;;;;;10.36;100.00;98916.31;5047271;28;19916;-66
2021/05/19 00:02:35;;;;;;;;;;;;;;;10.38;100.00;98925.69;5053946;28;19913;-66
2021/05/19 00:05:01;;;;;;;;;;;;;;;10.19;100.00;98919.38;5015665;28;20008;-66
2021/05/19 00:07:26;;;;;;;;;;;;;;;10.23;100.00;98916.66;5045606;28;20013;-66
2021/05/19 00:09:51;;;;;;;;;;;;;;;10.33;100.00;98919.84;5049221;28;20397;-66
2021/05/19 00:12:17;;;;;;;;;;;;;;;10.15;100.00;98912.66;5043438;28;19963;-66
2021/05/19 00:14:42;;;;;;;;;;;;;;;10.12;100.00;98917.91;5025465;28;19971;-66
2021/05/19 00:17:07;;;;;;;;;;;;;;;9.32;100.00;98915.13;5035359;28;19913;-66
2021/05/19 00:19:33;;;;;;;;;;;;;;;9.64;100.00;98917.63;5050499;28;19917;-66
2021/05/19 00:21:58;;;;;;;;;;;;;;;9.85;100.00;98915.28;5053204;28;20409;-66
2021/05/19 00:24:23;;;;;;;;;;;;;;;10.00;100.00;98914.00;5039753;28;19940;-66
2021/05/19 00:26:49;;;;;;;;;;;;;;;9.69;100.00;98907.19;5053263;28;19920;-66
2021/05/19 00:29:15;;;;;;;;;;;;;;;9.82;100.00;98911.09;5047926;28;20408;-66
2021/05/19 00:31:41;;;;;;;;;;;;;;;9.76;100.00;98910.41;5044824;28;19992;-66
2021/05/19 00:34:10;;;;;;;;;;;;;;;9.74;100.00;98912.19;5030383;28;20336;-66
2021/05/19 00:36:35;;;;;;;;;;;;;;;9.80;100.00;98907.72;5031846;28;19960;-66
2021/05/19 00:39:00;;;;;;;;;;;;;;;9.84;100.00;98906.72;5038023;28;19952;-66
2021/05/19 00:41:26;;;;;;;;;;;;;;;9.76;100.00;98913.00;5052487;28;19982;-65
2021/05/19 00:43:51;;;;;;;;;;;;;;;9.78;100.00;98916.38;5052813;28;20333;-66
2021/05/19 00:46:16;;;;;;;;;;;;;;;9.71;100.00;98910.56;5034893;28;20039;-66
2021/05/19 00:48:42;;;;;;;;;;;;;;;9.58;100.00;98916.97;5035115;28;19947;-66
2021/05/19 00:51:07;;;;;;;;;;;;;;;9.69;100.00;98919.22;5052495;28;19920;-66
2021/05/19 00:53:33;;;;;;;;;;;;;;;9.43;100.00;98918.25;5052557;28;20398;-66
2021/05/19 00:55:58;;;;;;;;;;;;;;;9.51;100.00;98915.44;5052742;28;19916;-66
2021/05/19 00:58:24;;;;;;;;;;;;;;;9.50;100.00;98922.31;5021540;28;20524;-66
2021/05/19 01:00:49;;;;;;;;;;;;;;;9.49;100.00;98923.22;5044450;28;20377;-66
2021/05/19 01:03:14;;;;;;;;;;;;;;;9.54;100.00;98913.66;5033773;28;19944;-66
2021/05/19 01:05:48;;;;;;;;;;;;;;;9.61;100.00;98917.72;5046967;28;20365;-67
2021/05/19 01:10:57;;;;;;;;;;;;;;;9.51;100.00;98915.44;5052216;28;19959;-66
2021/05/19 01:13:22;;;;;;;;;;;;;;;9.62;100.00;98904.00;5017847;28;20412;-66
2021/05/19 01:15:47;;;;;;;;;;;;;;;9.47;100.00;98901.84;5030995;28;19917;-66
2021/05/19 01:18:13;;;;;;;;;;;;;;;9.40;100.00;98902.94;5028802;28;19951;-66
2021/05/19 01:20:38;;;;;;;;;;;;;;;9.35;100.00;98907.34;5052207;28;19920;-65
2021/05/19 01:23:04;;;;;;;;;;;;;;;9.32;100.00;98904.88;5051202;28;19913;-66
2021/05/19 01:25:30;;;;;;;;;;;;;;;9.31;100.00;98898.06;5051850;28;19919;-66
2021/05/19 01:27:59;;;;;;;;;;;;;;;9.26;100.00;98895.63;5051766;28;20299;-66
2021/05/19 01:30:25;;;;;;;;;;;;;;;9.26;100.00;98897.31;5051764;28;19967;-66
2021/05/19 01:32:50;;;;;;;;;;;;;;;9.08;100.00;98899.53;5012060;28;19913;-66
2021/05/19 01:35:16;;;;;;;;;;;;;;;9.19;100.00;98904.34;5033999;28;19917;-66
2021/05/19 01:37:42;;;;;;;;;;;;;;;9.28;100.00;98910.97;5031108;28;19928;-66
2021/05/19 01:40:08;;;;;;;;;;;;;;;9.09;100.00;98911.47;5027283;28;19964;-66
2021/05/19 01:42:33;;;;;;;;;;;;;;;9.10;100.00;98909.75;5050262;28;20037;-66
2021/05/19 01:44:59;;;;;;;;;;;;;;;9.18;100.00;98903.50;5027085;28;19975;-66
2021/05/19 01:47:40;;;;;;;;;;;;;;;8.97;100.00;98915.22;5047932;28;19963;-66
2021/05/19 01:50:06;;;;;;;;;;;;;;;8.98;100.00;98909.19;5048029;28;19948;-66
2021/05/19 01:52:32;;;;;;;;;;;;;;;8.99;100.00;98908.31;5049414;28;20366;-66
2021/05/19 01:54:57;;;;;;;;;;;;;;;8.93;100.00;98917.91;5030866;28;19967;-66
2021/05/19 01:57:22;;;;;;;;;;;;;;;9.05;100.00;98917.56;5038429;28;19917;-66
2021/05/19 01:59:48;;;;;;;;;;;;;;;8.94;100.00;98919.59;5051436;28;19920;-66
2021/05/19 02:02:13;;;;;;;;;;;;;;;8.64;100.00;98919.50;5021782;28;20362;-66
2021/05/19 02:04:39;;;;;;;;;;;;;;;8.86;100.00;98906.13;5051280;28;19913;-66
2021/05/19 02:07:04;;;;;;;;;;;;;;;8.89;100.00;98911.19;5031627;28;20455;-66
2021/05/19 02:09:29;;;;;;;;;;;;;;;8.65;100.00;98913.50;5050768;28;19916;-66
2021/05/19 02:11:55;;;;;;;;;;;;;;;8.82;100.00;98910.50;5031629;28;19913;-66
2021/05/19 02:14:20;;;;;;;;;;;;;;;8.89;100.00;98911.19;5050947;28;19912;-66
2021/05/19 02:16:46;;;;;;;;;;;;;;;8.88;100.00;98910.34;5030748;28;19917;-65
2021/05/19 02:19:12;;;;;;;;;;;;;;;8.78;100.00;98912.31;5034336;28;20330;-66
2021/05/19 02:21:41;;;;;;;;;;;;;;;8.82;100.00;98909.66;5025214;28;20563;-65
2021/05/19 02:24:08;;;;;;;;;;;;;;;8.81;100.00;98910.56;5023595;28;19913;-66
2021/05/19 02:26:33;;;;;;;;;;;;;;;8.78;100.00;98916.59;5021836;28;19939;-67
2021/05/19 02:28:58;;;;;;;;;;;;;;;8.79;100.00;98914.00;5049147;28;19925;-67
2021/05/19 02:31:24;;;;;;;;;;;;;;;8.69;100.00;98919.38;5050437;28;19916;-67
2021/05/19 02:33:49;;;;;;;;;;;;;;;8.74;100.00;98903.00;5050587;28;19923;-67
2021/05/19 02:36:14;;;;;;;;;;;;;;;8.76;100.00;98905.53;5050468;28;20393;-67
2021/05/19 02:38:40;;;;;;;;;;;;;;;8.51;100.00;98905.31;5050647;28;19923;-66
2021/05/19 02:41:05;;;;;;;;;;;;;;;8.64;100.00;98911.81;5043504;28;19914;-67
2021/05/19 02:43:30;;;;;;;;;;;;;;;8.51;100.00;98910.47;5047709;28;19925;-66
2021/05/19 02:45:56;;;;;;;;;;;;;;;8.45;100.00;98905.47;5027776;28;19912;-66
2021/05/19 02:48:21;;;;;;;;;;;;;;;8.40;100.00;98907.28;5032674;28;19917;-67
2021/05/19 02:50:46;;;;;;;;;;;;;;;8.47;100.00;98906.28;5032385;28;19920;-67
2021/05/19 02:53:12;;;;;;;;;;;;;;;8.38;100.00;98905.59;5045946;28;19924;-67
2021/05/19 02:55:37;;;;;;;;;;;;;;;8.36;100.00;98911.63;5032556;28;20015;-65
2021/05/19 02:58:02;;;;;;;;;;;;;;;8.22;100.00;98909.41;5006310;28;19917;-66
2021/05/19 03:00:28;;;;;;;;;;;;;;;8.17;100.00;98913.81;5013208;28;19928;-67
2021/05/19 03:02:53;;;;;;;;;;;;;;;8.23;100.00;98911.06;5022293;28;19912;-67
2021/05/19 03:05:18;;;;;;;;;;;;;;;8.30;100.00;98912.63;5048690;28;19928;-67
2021/05/19 03:07:45;;;;;;;;;;;;;;;8.36;100.00;98917.59;5030375;28;19936;-67
2021/05/19 03:10:10;;;;;;;;;;;;;;;8.29;100.00;98918.63;5037832;28;19916;-67
2021/05/19 03:12:36;;;;;;;;;;;;;;;8.25;100.00;98914.44;5032415;28;19924;-67
2021/05/19 03:15:02;;;;;;;;;;;;;;;8.34;100.00;98919.34;5049285;28;19964;-67
2021/05/19 03:17:27;;;;;;;;;;;;;;;8.02;100.00;98921.84;5027893;28;19967;-66
2021/05/19 03:19:52;;;;;;;;;;;;;;;8.20;100.00;98921.41;5036927;28;19913;-67
2021/05/19 03:22:18;;;;;;;;;;;;;;;8.03;100.00;98923.53;5032184;28;19920;-66
2021/05/19 03:24:43;;;;;;;;;;;;;;;8.20;100.00;98918.03;5048774;28;19913;-66
2021/05/19 03:27:08;;;;;;;;;;;;;;;8.03;100.00;98921.81;5033037;28;19990;-66
2021/05/19 03:29:34;;;;;;;;;;;;;;;8.08;100.00;98916.59;5036285;28;19961;-66
2021/05/19 03:31:59;;;;;;;;;;;;;;;7.83;100.00;98922.28;5030607;28;19935;-67
2021/05/19 03:34:24;;;;;;;;;;;;;;;8.04;100.00;98912.41;5011486;28;19940;-66
2021/05/19 03:36:50;;;;;;;;;;;;;;;8.09;100.00;98918.25;5021874;28;19917;-67
2021/05/19 03:39:15;;;;;;;;;;;;;;;8.08;100.00;98914.03;4993143;28;20310;-67
2021/05/19 03:41:42;;;;;;;;;;;;;;;7.88;100.00;98920.44;5012216;28;19914;-67
2021/05/19 03:44:08;;;;;;;;;;;;;;;8.10;100.00;98917.41;5001514;28;19917;-66
2021/05/19 03:46:33;;;;;;;;;;;;;;;7.79;100.00;98920.66;5002120;28;20059;-67
2021/05/19 03:49:00;;;;;;;;;;;;;;;7.94;100.00;98920.31;5018969;28;19921;-67
2021/05/19 03:51:25;;;;;;;;;;;;;;;7.71;100.00;98922.53;5010804;28;19917;-66
2021/05/19 03:53:51;;;;;;;;;;;;;;;7.92;100.00;98922.06;5026960;28;19972;-67
2021/05/19 03:56:16;;;;;;;;;;;;;;;7.66;100.00;98924.34;5033653;28;19951;-67
2021/05/19 03:58:42;;;;;;;;;;;;;;;7.88;100.00;98925.56;5015655;28;19967;-66
2021/05/19 04:01:07;;;;;;;;;;;;;;;7.65;100.00;98927.78;5013215;28;19921;-66
2021/05/19 04:03:32;;;;;;;;;;;;;;;7.83;100.00;98932.53;5022020;28;19917;-67
2021/05/19 04:05:58;;;;;;;;;;;;;;;7.99;100.00;98927.06;5031450;28;20221;-66
2021/05/19 04:08:31;;;;;;;;;;;;;;;8.00;100.00;98928.72;5032468;28;19956;-66
2021/05/19 04:10:57;;;;;;;;;;;;;;;8.13;100.00;98935.28;5019113;28;20012;-66
2021/05/19 04:13:22;;;;;;;;;;;;;;;8.06;100.00;98933.72;5028085;28;20413;-67
2021/05/19 04:15:47;;;;;;;;;;;;;;;8.15;100.00;98939.47;5025429;28;19972;-67
2021/05/19 04:18:13;;;;;;;;;;;;;;;8.25;100.00;98939.28;5017422;28;19917;-66
2021/05/19 04:20:38;;;;;;;;;;;;;;;8.20;100.00;98938.53;5015564;28;19920;-67
2021/05/19 04:23:04;;;;;;;;;;;;;;;8.13;100.00;98940.41;5033117;28;19913;-67
2021/05/19 04:25:29;;;;;;;;;;;;;;;8.09;100.00;98946.47;5023299;28;19917;-67
2021/05/19 04:27:54;;;;;;;;;;;;;;;8.24;100.00;98940.16;5001238;28;19955;-67
2021/05/19 04:30:19;;;;;;;;;;;;;;;8.28;100.00;98945.19;5053443;28;20003;-66
2021/05/19 04:32:45;;;;;;;;;;;;;;;8.16;100.00;98940.31;5035851;28;19917;-66
2021/05/19 04:35:10;;;;;;;;;;;;;;;8.68;100.00;98948.53;5057526;28;19923;-66
2021/05/19 04:37:36;;;;;;;;;;;;;;;8.62;100.00;98943.53;5058960;28;19913;-66
2021/05/19 04:40:02;;;;;;;;;;;;;;;8.56;100.00;98944.53;5038510;28;19936;-67
2021/05/19 04:42:27;;;;;;;;;;;;;;;8.58;100.00;98945.34;5055857;28;19919;-67
2021/05/19 04:44:53;;;;;;;;;;;;;;;8.57;100.00;98952.19;5055051;28;19920;-67
2021/05/19 04:47:18;;;;;;;;;;;;;;;8.44;100.00;98952.53;5056455;28;20381;-66
2021/05/19 04:49:43;;;;;;;;;;;;;;;8.78;100.00;98953.41;5036661;28;19927;-66
2021/05/19 04:52:08;;;;;;;;;;;;;;;8.95;100.00;98957.25;5055283;28;19964;-66
2021/05/19 04:54:34;;;;;;;;;;;;;;;9.04;100.00;98958.75;5059367;28;20331;-67
2021/05/19 04:57:00;;;;;;;;;;;;;;;9.14;100.00;98961.00;5038065;28;19940;-67
2021/05/19 04:59:25;;;;;;;;;;;;;;;9.16;100.00;98966.94;5036237;28;19919;-67
2021/05/19 05:01:51;;;;;;;;;;;;;;;9.21;100.00;98967.69;5054768;28;19979;-66
2021/05/19 05:04:16;;;;;;;;;;;;;;;9.32;100.00;98964.81;5061051;28;20003;-67
2021/05/19 05:06:43;;;;;;;;;;;;;;;9.46;100.00;98964.41;5057107;28;19913;-66
2021/05/19 05:09:08;;;;;;;;;;;;;;;9.37;100.00;98965.53;5060665;28;19912;-67
2021/05/19 05:11:33;;;;;;;;;;;;;;;9.42;100.00;98970.56;5040277;28;19913;-66
2021/05/19 05:13:58;;;;;;;;;;;;;;;9.51;100.00;98975.44;5054522;28;20403;-66
2021/05/19 05:16:24;;;;;;;;;;;;;;;9.42;100.00;98967.97;5054904;28;19917;-66
2021/05/19 05:18:49;;;;;;;;;;;;;;;9.23;100.00;98970.19;5026140;28;19920;-67
2021/05/19 05:21:14;;;;;;;;;;;;;;;9.51;100.00;98974.56;5055034;28;19912;-67
2021/05/19 05:23:40;;;;;;;;;;;;;;;9.40;100.00;98972.31;5053134;28;19923;-67
2021/05/19 05:26:05;;;;;;;;;;;;;;;9.57;100.00;98967.53;5054219;28;19912;-66
2021/05/19 05:28:31;;;;;;;;;;;;;;;9.53;100.00;98973.63;5052123;28;19940;-67
2021/05/19 05:30:57;;;;;;;;;;;;;;;9.69;100.00;98979.19;5028338;28;20259;-66
2021/05/19 05:33:22;;;;;;;;;;;;;;;9.72;100.00;98975.72;5033151;28;19924;-66
2021/05/19 05:35:48;;;;;;;;;;;;;;;9.98;100.00;98978.34;5014282;28;19917;-66
2021/05/19 05:38:13;;;;;;;;;;;;;;;9.98;100.00;98973.19;5019589;28;19920;-66
2021/05/19 05:40:39;;;;;;;;;;;;;;;9.80;100.00;98979.72;5030227;28;19913;-66
2021/05/19 05:43:04;;;;;;;;;;;;;;;10.02;100.00;98979.09;5031342;28;19920;-66
2021/05/19 05:45:29;;;;;;;;;;;;;;;10.49;100.00;98981.97;5030207;28;19920;-66
2021/05/19 05:47:55;;;;;;;;;;;;;;;10.38;100.00;98987.47;5019156;28;19920;-66
2021/05/19 05:50:20;;;;;;;;;;;;;;;10.36;100.00;98989.25;5011552;28;19913;-66
2021/05/19 05:52:46;;;;;;;;;;;;;;;10.32;100.00;98986.81;5004576;28;19914;-66
2021/05/19 05:55:11;;;;;;;;;;;;;;;10.35;100.00;99002.97;5031690;28;19921;-66
2021/05/19 05:57:37;;;;;;;;;;;;;;;10.23;100.00;99000.75;5016646;28;20296;-67
2021/05/19 06:00:04;;;;;;;;;;;;;;;10.45;100.00;98996.66;5009765;28;19984;-66
2021/05/19 06:02:29;;;;;;;;;;;;;;;10.52;100.00;99002.47;5030304;28;19920;-66
2021/05/19 06:04:54;;;;;;;;;;;;;;;10.61;100.00;99004.75;5027124;28;19913;-66
2021/05/19 06:07:20;;;;;;;;;;;;;;;10.66;100.00;99002.03;5036062;28;19975;-67
2021/05/19 06:09:51;;;;;;;;;;;;;;;10.94;100.00;99001.13;5019908;28;19917;-67
2021/05/19 06:12:16;;;;;;;;;;;;;;;10.72;100.00;99001.84;5026217;28;20007;-67
2021/05/19 06:14:41;;;;;;;;;;;;;;;10.37;100.00;99001.19;5034310;28;20393;-67
2021/05/19 06:17:09;;;;;;;;;;;;;;;10.72;100.00;99007.00;5023446;28;19996;-66
2021/05/19 06:19:34;;;;;;;;;;;;;;;10.80;100.00;99004.97;5021404;28;19921;-66
2021/05/19 06:22:01;;;;;;;;;;;;;;;10.87;100.00;99011.63;5034208;28;19913;-66
2021/05/19 06:24:26;;;;;;;;;;;;;;;10.75;100.00;99008.63;5020228;28;19914;-66
2021/05/19 06:26:52;;;;;;;;;;;;;;;10.87;100.00;99016.78;5029778;28;19924;-66
2021/05/19 06:29:17;;;;;;;;;;;;;;;10.86;100.00;99015.09;5039094;28;20345;-66
2021/05/19 06:31:42;;;;;;;;;;;;;;;10.86;100.00;99020.25;5053176;28;19917;-64
2021/05/19 06:34:08;;;;;;;;;;;;;;;11.21;100.00;99025.94;5051866;28;19919;-66
2021/05/19 06:36:33;;;;;;;;;;;;;;;11.24;100.00;99028.44;5065336;28;20591;-67
2021/05/19 06:38:58;;;;;;;;;;;;;;;11.45;100.00;99028.59;5031359;28;19960;-66
2021/05/19 06:41:24;;;;;;;;;;;;;;;11.73;100.00;99026.69;5050405;28;19924;-66
2021/05/19 06:43:49;;;;;;;;;;;;;;;11.79;100.00;99025.66;5052797;28;20301;-66
2021/05/19 06:46:14;;;;;;;;;;;;;;;11.80;100.00;99026.47;5054287;28;20005;-66
2021/05/19 06:48:40;;;;;;;;;;;;;;;11.55;100.00;99023.94;5054530;28;19916;-66
2021/05/19 06:51:05;;;;;;;;;;;;;;;11.55;100.00;99023.94;5053144;28;20424;-66
2021/05/19 06:53:31;;;;;;;;;;;;;;;10.99;100.00;99024.97;5048297;28;20149;-66
2021/05/19 06:55:57;;;;;;;;;;;;;;;10.63;100.00;99020.16;5036200;28;19920;-66
2021/05/19 06:58:23;;;;;;;;;;;;;;;10.91;100.00;99032.16;5054788;28;20389;-67
2021/05/19 07:00:48;;;;;;;;;;;;;;;11.17;100.00;99029.53;5038337;28;19913;-66
2021/05/19 07:03:14;;;;;;;;;;;;;;;11.93;100.00;99030.34;5034179;28;20334;-66
2021/05/19 07:05:39;;;;;;;;;;;;;;;11.68;100.00;99025.19;5042057;28;20063;-66
2021/05/19 07:08:06;;;;;;;;;;;;;;;11.58;100.00;99028.97;5060453;28;20026;-66
2021/05/19 07:10:33;;;;;;;;;;;;;;;12.40;100.00;99032.81;5054555;28;19912;-67
2021/05/19 07:12:59;;;;;;;;;;;;;;;12.41;100.00;99031.94;5014585;28;20349;-66
2021/05/19 07:15:24;;;;;;;;;;;;;;;12.73;100.00;99017.75;5053711;28;19928;-66
2021/05/19 07:17:49;;;;;;;;;;;;;;;12.85;100.00;99031.91;5058374;28;20008;-66
2021/05/19 07:20:15;;;;;;;;;;;;;;;12.40;100.00;99035.41;5032533;28;19916;-66
2021/05/19 07:22:40;;;;;;;;;;;;;;;12.12;100.00;99035.63;5044715;28;20386;-66
2021/05/19 07:25:07;;;;;;;;;;;;;;;11.75;100.00;99036.13;5056732;28;19956;-66
2021/05/19 07:27:32;;;;;;;;;;;;;;;12.86;100.00;99031.00;5022641;28;19948;-66
2021/05/19 07:29:58;;;;;;;;;;;;;;;13.21;100.00;99028.72;5061347;28;20400;-66
2021/05/19 07:32:23;;;;;;;;;;;;;;;12.95;100.00;99038.41;5044531;28;19916;-64
2021/05/19 07:34:48;;;;;;;;;;;;;;;13.35;100.00;99031.56;5045272;28;19913;-66
2021/05/19 07:37:14;;;;;;;;;;;;;;;12.95;100.00;99030.63;5058169;28;19956;-67
2021/05/19 07:39:39;;;;;;;;;;;;;;;12.68;100.00;99036.91;5055429;28;20078;-66
2021/05/19 07:42:04;;;;;;;;;;;;;;;12.77;100.00;99028.78;5045761;28;19936;-66
2021/05/19 07:44:30;;;;;;;;;;;;;;;13.94;100.00;99026.44;5029806;28;20000;-66
2021/05/19 07:46:55;;;;;;;;;;;;;;;14.63;100.00;99024.06;5042527;28;20007;-67
2021/05/19 07:49:20;;;;;;;;;;;;;;;15.16;100.00;99026.66;5053177;28;19913;-66
2021/05/19 07:51:46;;;;;;;;;;;;;;;15.24;100.00;99022.78;5053506;28;19952;-64
2021/05/19 07:54:17;;;;;;;;;;;;;;;14.98;100.00;99024.06;5050011;28;19913;-64
2021/05/19 07:56:49;;;;;;;;;;;;;;;14.92;100.00;99024.41;5033330;28;19947;-64
2021/05/19 07:59:17;;;;;;;;;;;;;;;14.41;100.00;99032.00;5035297;28;19917;-67
2021/05/19 08:01:54;;;;;;;;;;;;;;;15.06;100.00;99027.13;5033118;28;19921;-64
2021/05/19 08:04:19;;;;;;;;;;;;;;;15.30;100.00;99034.59;5028978;28;19921;-64
2021/05/19 08:06:45;;;;;;;;;;;;;;;14.19;100.00;99029.56;5052690;28;20466;-64
2021/05/19 08:09:10;;;;;;;;;;;;;;;13.49;100.00;99032.72;5057848;28;20003;-64
2021/05/19 08:11:37;;;;;;;;;;;;;;;14.30;100.00;99021.31;5050546;28;20289;-64
2021/05/19 08:14:02;;;;;;;;;;;;;;;14.59;100.00;99027.69;5056904;28;19920;-64
2021/05/19 08:16:29;;;;;;;;;;;;;;;13.31;100.00;99035.19;5037981;28;20016;-67
2021/05/19 08:18:54;;;;;;;;;;;;;;;12.59;100.00;99040.72;5053701;28;19913;-64
2021/05/19 08:21:20;;;;;;;;;;;;;;;13.31;100.00;99034.34;5052797;28;19912;-64
2021/05/19 08:23:46;;;;;;;;;;;;;;;13.21;100.00;99033.88;5026159;28;20399;-64
2021/05/19 08:26:11;;;;;;;;;;;;;;;14.07;100.00;99034.44;5051660;28;19912;-64
2021/05/19 08:28:37;;;;;;;;;;;;;;;13.55;100.00;99033.31;5052620;28;19928;-64
2021/05/19 08:31:02;;;;;;;;;;;;;;;14.87;100.00;99026.38;5052641;28;19956;-64
2021/05/19 08:33:28;;;;;;;;;;;;;;;15.12;100.00;99025.13;5048048;28;20358;-64
2021/05/19 08:35:53;;;;;;;;;;;;;;;14.11;100.00;99036.84;5000611;28;19968;-66
2021/05/19 08:38:18;;;;;;;;;;;;;;;13.71;100.00;99033.47;5005675;28;19917;-66
2021/05/19 08:40:43;;;;;;;;;;;;;;;14.69;100.00;99035.03;5026543;28;20012;-65
2021/05/19 08:43:12;;;;;;;;;;;;;;;15.65;100.00;99029.34;5033763;28;20580;-66
2021/05/19 08:45:37;;;;;;;;;;;;;;;15.24;100.00;99027.13;5030599;28;20000;-66
2021/05/19 08:48:03;;;;;;;;;;;;;;;14.79;100.00;99039.69;5031042;28;20011;-66
2021/05/19 08:50:30;;;;;;;;;;;;;;;15.16;100.00;99034.44;5013016;28;19977;-66
2021/05/19 08:52:58;;;;;;;;;;;;;;;15.19;100.00;99031.69;5031674;28;19939;-66
2021/05/19 08:55:23;;;;;;;;;;;;;;;15.67;100.00;99022.31;5050622;28;19921;-66
2021/05/19 08:57:49;;;;;;;;;;;;;;;16.21;100.00;99012.50;5001994;28;20333;-66
2021/05/19 09:00:15;;;;;;;;;;;;;;;16.55;100.00;99013.22;5014671;28;19928;-66
2021/05/19 09:02:40;;;;;;;;;;;;;;;16.91;100.00;99017.28;5000082;28;19917;-65
2021/05/19 09:05:06;;;;;;;;;;;;;;;16.89;100.00;99011.34;5005772;28;20459;-66
2021/05/19 09:07:32;;;;;;;;;;;;;;;16.24;100.00;99011.53;5003901;28;19921;-67
2021/05/19 09:10:01;;;;;;;;;;;;;;;16.28;100.00;99019.06;5030212;28;19917;-66
2021/05/19 09:12:26;;;;;;;;;;;;;;;15.76;100.00;99021.00;5016022;28;19952;-66
2021/05/19 09:14:54;;;;;;;;;;;;;;;15.10;100.00;99021.78;5044980;28;20022;-65
2021/05/19 09:17:30;;;;;;;;;;;;;;;15.58;100.00;99017.63;5042078;28;19917;-66
2021/05/19 09:19:58;;;;;;;;;;;;;;;16.00;100.00;99016.28;5031669;28;19920;-66
2021/05/19 09:22:24;;;;;;;;;;;;;;;16.07;100.00;99007.22;5031676;28;19975;-66
2021/05/19 09:24:50;;;;;;;;;;;;;;;16.16;100.00;99014.53;5030130;28;19920;-66
2021/05/19 09:27:15;;;;;;;;;;;;;;;16.26;100.00;99009.66;4994379;28;20375;-67
2021/05/19 09:29:43;;;;;;;;;;;;;;;16.08;100.00;99006.31;5012025;28;20379;-66
2021/05/19 09:32:09;;;;;;;;;;;;;;;16.46;100.00;99005.94;4997641;28;20012;-66
2021/05/19 09:34:39;;;;;;;;;;;;;;;16.26;100.00;99009.66;5051701;28;19913;-66
2021/05/19 09:37:18;;;;;;;;;;;;;;;16.01;100.00;99010.16;5039818;28;19971;-66
2021/05/19 09:39:53;;;;;;;;;;;;;;;16.19;100.00;99010.91;5031895;28;19992;-66
2021/05/19 09:42:19;;;;;;;;;;;;;;;16.07;100.00;99010.66;5032018;28;19975;-66
2021/05/19 09:44:47;;;;;;;;;;;;;;;15.30;100.00;99016.41;5031856;28;19913;-66
2021/05/19 09:47:12;;;;;;;;;;;;;;;14.98;100.00;99008.50;5013779;28;19913;-66
2021/05/19 09:49:37;;;;;;;;;;;;;;;14.30;100.00;99012.66;5014074;28;19920;-67
2021/05/19 09:52:10;;;;;;;;;;;;;;;14.82;100.00;99007.59;5031584;28;19909;-66
2021/05/19 09:54:42;;;;;;;;;;;;;;;17.35;100.00;98998.22;5031723;28;19920;-66
2021/05/19 09:57:09;;;;;;;;;;;;;;;16.58;100.00;98992.28;5027827;28;19967;-66
2021/05/19 09:59:35;;;;;;;;;;;;;;;17.13;100.00;98996.91;5051549;28;19912;-66
2021/05/19 10:02:01;;;;;;;;;;;;;;;16.83;100.00;98998.69;5033638;28;19924;-65
2021/05/19 10:04:40;;;;;;;;;;;;;;;16.80;100.00;98988.47;5031617;28;20003;-65
2021/05/19 10:07:11;;;;;;;;;;;;;;;16.10;100.00;99001.84;5013710;28;19913;-65
2021/05/19 10:09:36;;;;;;;;;;;;;;;14.03;100.00;99013.06;4993404;28;19913;-65
2021/05/19 10:12:03;;;;;;;;;;;;;;;13.42;100.00;99008.03;5010435;28;20306;-65
2021/05/19 10:14:28;;;;;;;;;;;;;;;14.08;100.00;99005.91;4993020;28;19917;-65
2021/05/19 10:16:55;;;;;;;;;;;;;;;14.09;100.00;99012.75;5010967;28;19921;-65
2021/05/19 10:19:27;;;;;;;;;;;;;;;13.38;96.65;99012.47;4992891;28;19914;-65
2021/05/19 10:21:53;;;;;;;;;;;;;;;13.92;96.64;99007.53;5011619;28;19918;-65
2021/05/19 10:24:21;;;;;;;;;;;;;;;14.25;96.44;98997.34;4994103;28;19914;-65
2021/05/19 10:26:58;;;;;;;;;;;;;;;15.25;94.78;98995.06;4994481;28;19913;-65
2021/05/19 10:29:56;;;;;;;;;;;;;;;16.95;89.79;98992.78;5038353;28;20401;-65
2021/05/19 10:32:22;;;;;;;;;;;;;;;17.66;77.96;98989.41;4996750;28;19919;-65
2021/05/19 10:34:51;;;;;;;;;;;;;;;16.41;80.19;98987.19;5050903;28;20411;-65
2021/05/19 10:37:32;;;;;;;;;;;;;;;13.83;87.71;98989.81;5050995;28;19959;-65
2021/05/19 10:40:06;;;;;;;;;;;;;;;13.57;91.54;98989.22;5050914;28;19955;-65
2021/05/19 10:42:32;;;;;;;;;;;;;;;13.29;98.31;98989.59;5050966;28;19947;-65
2021/05/19 10:45:10;;;;;;;;;;;;;;;13.84;88.96;98994.06;5033244;28;19982;-65
2021/05/19 10:47:36;;;;;;;;;;;;;;;15.48;91.27;98975.72;5051026;28;20373;-65
2021/05/19 10:52:58;;;;;;;;;;;;;;;15.33;83.45;98985.16;5031164;28;19917;-65
2021/05/19 10:58:00;;;;;;;;;;;;;;;14.95;75.66;98968.94;5031060;28;20440;-65
2021/05/19 11:00:26;;;;;;;;;;;;;;;15.02;72.68;98973.72;5013059;28;19936;-65
2021/05/19 11:02:55;;;;;;;;;;;;;;;16.76;74.11;98966.13;5032623;28;19913;-65
2021/05/19 11:05:20;;;;;;;;;;;;;;;17.03;68.96;98959.34;5033678;28;20374;-65
2021/05/19 11:08:18;;;;;;;;;;;;;;;17.23;75.55;98963.34;5033242;28;19920;-65
2021/05/19 11:10:48;;;;;;;;;;;;;;;15.72;75.20;98963.22;4978296;28;20194;-65
2021/05/19 11:13:14;;;;;;;;;;;;;;;17.31;77.90;98942.94;5033666;28;19976;-65
2021/05/19 11:21:14;;;;;;;;;;;;;;;15.00;86.86;98960.00;5017599;28;19952;-65
2021/05/19 11:23:39;;;;;;;;;;;;;;;14.19;85.98;98961.38;5034807;28;20425;-65
2021/05/19 11:26:09;;;;;;;;;;;;;;;14.05;87.19;98959.44;5016984;28;19919;-65
2021/05/19 11:28:34;;;;;;;;;;;;;;;13.84;88.94;98957.84;5037707;28;19921;-65
2021/05/19 11:31:06;;;;;;;;;;;;;;;16.05;84.17;98949.31;5054709;28;19920;-65
2021/05/19 11:33:33;;;;;;;;;;;;;;;16.10;76.64;98942.09;5054627;28;19971;-65
2021/05/19 11:35:58;;;;;;;;;;;;;;;14.61;94.63;98953.31;5036627;28;19920;-65
2021/05/19 11:38:23;;;;;;;;;;;;;;;14.39;100.00;98952.63;5054463;28;20374;-65
2021/05/19 11:40:49;;;;;;;;;;;;;;;14.33;100.00;98961.56;5036634;28;19912;-65
2021/05/19 11:43:15;;;;;;;;;;;;;;;13.96;100.00;98967.66;5054604;28;20007;-65
2021/05/19 11:45:41;;;;;;;;;;;;;;;13.92;100.00;98963.50;5036563;28;19999;-64
2021/05/19 11:48:17;;;;;;;;;;;;;;;14.22;97.57;98967.25;5035802;28;20008;-65
2021/05/19 11:50:43;;;;;;;;;;;;;;;15.13;94.90;98965.41;5034414;28;19967;-65
2021/05/19 11:53:09;;;;;;;;;;;;;;;15.26;83.25;98961.28;5052246;28;19913;-65
2021/05/19 11:55:38;;;;;;;;;;;;;;;15.55;84.90;98960.66;5052255;28;19951;-65
2021/05/19 11:58:03;;;;;;;;;;;;;;;16.49;80.18;98959.84;5052810;28;20290;-65
2021/05/19 12:00:30;;;;;;;;;;;;;;;17.09;69.90;98953.78;5052064;28;19958;-65
2021/05/19 12:02:55;;;;;;;;;;;;;;;16.58;74.30;98953.28;5052587;28;19913;-65
2021/05/19 12:05:23;;;;;;;;;;;;;;;16.15;73.56;98955.69;5053853;28;19919;-65
2021/05/19 12:07:49;;;;;;;;;;;;;;;16.39;72.47;98963.03;5053793;28;19916;-65
2021/05/19 12:10:15;;;;;;;;;;;;;;;16.64;72.11;98958.09;5053870;28;20308;-64
2021/05/19 12:12:41;;;;;;;;;;;;;;;16.57;78.98;98956.78;5053636;28;19999;-64
2021/05/19 12:15:06;;;;;;;;;;;;;;;14.88;82.99;98968.41;5035379;28;19913;-65
2021/05/19 12:17:32;;;;;;;;;;;;;;;15.41;75.35;98963.97;5053480;28;19978;-66
2021/05/19 12:19:57;;;;;;;;;;;;;;;17.06;79.48;98959.16;5036088;28;19913;-65
2021/05/19 12:22:23;;;;;;;;;;;;;;;16.59;80.64;98957.53;5035567;28;20007;-65
2021/05/19 12:24:49;;;;;;;;;;;;;;;15.51;73.47;98959.13;5035893;28;19919;-65
2021/05/19 12:27:18;;;;;;;;;;;;;;;16.78;83.22;98953.88;5035467;28;19912;-66
2021/05/19 12:29:47;;;;;;;;;;;;;;;17.73;74.00;98953.41;5022882;28;20370;-65
2021/05/19 12:32:14;;;;;;;;;;;;;;;19.07;77.20;98948.25;5016222;28;19913;-65
2021/05/19 12:34:39;;;;;;;;;;;;;;;17.88;70.92;98947.28;5033270;28;20400;-65
2021/05/19 12:37:05;;;;;;;;;;;;;;;17.51;77.55;98948.66;5033219;28;19917;-65
2021/05/19 12:39:31;;;;;;;;;;;;;;;17.16;65.13;98956.84;5015655;28;19913;-65
2021/05/19 12:41:59;;;;;;;;;;;;;;;17.85;71.69;98951.81;5031810;28;19943;-65
2021/05/19 12:44:27;;;;;;;;;;;;;;;18.16;67.96;98948.13;5031594;28;19920;-65
2021/05/19 12:47:01;;;;;;;;;;;;;;;19.91;73.33;98944.19;5032641;28;19972;-65
2021/05/19 12:49:26;;;;;;;;;;;;;;;18.25;67.83;98950.13;5015033;28;19921;-65
2021/05/19 12:51:53;;;;;;;;;;;;;;;17.19;66.37;98943.66;5032548;28;19936;-65